Woodland Park Weather Observations

home  gauges   today   yesterday   NOAA reports   graphs 
this month    this year    monthly records   extremes  

Observations from 12/12/2018 5:40 pm back to 12/9/2018 05:40 pm half hourly.

 

Observations previous 72 hours
 
Date/Time
MST
 
Temp
°F
App
Temp
°F
Heat
Index
°F
Wind
Chill
°F
Dew
Point
°F
Rel
Hum
%
 
Dir
 
 
Spd
kph
Wind
Gust
kph
 
Speed
MPH
 
Gust
MPH
Press
MSL
in
Rain
Since 12am
in
12/05:40pm 33.4 33.4 33.4 8.8 35 2.7 6.0 29.80 0.00 0 0
12/05:10pm 34.3 34.3 34.3 7.6 32 0.0 2.7 29.79 0.00 0 0
12/04:40pm 35.4 35.4 35.4 5.6 28 0.0 2.0 29.78 0.00 0 0
12/04:10pm 37.2 37.2 34.1 2.9 23 4.0 6.7 29.78 0.00 0 0
12/03:40pm 39.0 39.0 36.8 6.2 25 3.4 11.4 29.78 0.00 0 0
12/03:10pm 40.1 40.1 36.8 3.3 21 4.7 12.8 29.78 0.00 0 0
12/02:40pm 41.4 41.4 36.2 3.3 20 8.1 17.4 29.77 0.00 0 0
12/02:10pm 43.5 43.5 42.0 2.9 18 3.4 12.1 29.77 0.00 0 0
12/01:40pm 42.6 42.6 39.7 3.3 19 4.7 10.7 29.77 0.00 0 0
12/01:10pm 42.3 42.3 38.4 3.0 19 6.0 11.4 29.78 0.00 0 0
12/12:40pm 43.7 43.7 42.2 3.0 18 3.4 14.1 29.78 0.00 0 0
12/12:10pm 43.3 43.3 40.1 2.7 18 5.4 10.7 29.80 0.00 0 0
12/11:40am 43.5 43.5 39.2 2.9 18 7.4 13.4 29.81 0.00 0 0
12/11:10am 42.3 42.3 38.4 3.0 19 6.0 9.4 29.83 0.00 0 0
12/10:40am 39.0 39.0 39.0 1.4 20 0.0 8.1 29.86 0.00 0 0
12/10:10am 38.5 38.5 36.2 2.0 21 3.4 13.4 29.87 0.00 0 0
12/09:40am 39.0 39.0 34.1 2.4 21 6.7 16.8 29.87 0.00 0 0
12/09:10am 37.4 37.4 37.4 0.0 20 2.0 6.7 29.88 0.00 0 0
12/08:40am 36.5 36.5 33.2 -5.4 16 4.0 13.4 29.87 0.00 0 0
12/08:10am 34.7 34.7 28.5 -5.6 17 7.4 13.4 29.87 0.00 0 0
12/07:50am 33.4 33.4 33.4 -5.4 18 2.0 10.7 29.88 0.00 0 0
12/07:38am 32.9 32.9 32.9 -4.9 19 2.7 5.4 29.88 0.00 0 0
12/07:08am 33.3 33.3 28.2 -5.8 18 5.4 7.4 29.88 0.00 0 0
12/06:38am 32.9 32.9 28.4 -4.9 19 4.7 6.7 29.88 0.00 0 0
12/06:08am 32.4 32.4 32.4 -6.5 18 2.7 5.4 29.88 0.00 0 0
12/05:38am 32.2 32.2 32.2 -5.5 19 0.7 2.7 29.89 0.00 0 0
12/05:08am 32.0 32.0 32.0 -5.7 19 2.7 4.0 29.89 0.00 0 0
12/04:38am 32.7 32.7 32.7 -6.2 18 2.7 5.4 29.90 0.00 0 0
12/04:08am 31.6 31.6 31.6 -6.0 19 1.3 3.4 29.90 0.00 0 0
12/03:38am 31.8 31.8 31.8 -4.8 20 1.3 2.0 29.92 0.00 0 0
12/03:08am 31.1 31.1 31.1 -5.4 20 1.3 2.7 29.92 0.00 0 0
12/02:38am 31.5 31.5 31.5 -6.1 19 2.0 4.7 29.92 0.00 0 0
12/02:08am 32.2 32.2 32.2 -6.7 18 2.7 4.0 29.93 0.00 0 0
12/01:38am 32.5 32.5 32.5 -6.4 18 1.3 4.0 29.94 0.00 0 0
12/01:08am 32.2 32.2 29.0 -5.5 19 3.4 4.0 29.95 0.00 0 0
12/12:38am 31.5 31.5 31.5 -5.1 20 1.3 2.0 29.95 0.00 0 0
12/12:08am 32.2 32.2 32.2 -5.5 19 2.7 4.7 29.96 0.00 0 0
11/11:38pm 31.8 31.8 27.1 -3.8 21 4.7 8.1 29.97 0.00 0 0
11/11:08pm 31.6 31.6 31.6 -4.9 20 2.7 6.0 29.97 0.00 0 0
11/10:10pm 31.6 31.6 25.2 -3.8 21 6.7 13.4 29.98 0.00 0 0
11/09:40pm 32.7 32.7 32.7 -3.9 20 2.0 7.4 29.98 0.00 0 0
11/09:10pm 31.6 31.6 31.6 -3.8 21 0.7 2.7 30.00 0.00 0 0
11/08:40pm 32.7 32.7 32.7 -3.9 20 1.3 10.1 30.01 0.00 0 0
11/08:10pm 32.0 32.0 32.0 -4.5 20 2.0 5.4 30.02 0.00 0 0
11/07:40pm 32.0 32.0 32.0 -4.5 20 1.3 10.1 30.02 0.00 0 0
11/07:10pm 32.0 32.0 32.0 -4.5 20 2.0 4.7 30.03 0.00 0 0
11/06:40pm 30.6 30.6 30.6 -5.7 20 2.7 4.7 30.03 0.00 0 0
11/06:10pm 31.5 31.5 31.5 -4.9 20 2.7 3.4 30.03 0.00 0 0
 
Date/Time
MST
 
Temp
°F
App
Temp
°F
Heat
Index
°F
Wind
Chill
°F
Dew
Point
°F
Rel
Hum
%
 
Dir
 
 
Spd
km/h
Wind
Gust
km/h
 
Speed
MPH
 
Gust
MPH
Press
MSL
in
Rain
Since 9am
in
 
Solar
W/m2
 
UV
Index
11/05:40pm 35.6 35.6 35.6 -6.1 16 1.3 6.7 30.03 0.00 0 0
11/05:10pm 36.0 36.0 36.0 -4.6 17 2.7 6.0 30.03 0.00 0 0
11/04:40pm 37.6 37.6 37.6 1.2 21 1.3 8.7 30.03 0.00 0 0
11/04:10pm 39.9 39.9 39.9 2.1 20 1.3 11.4 30.03 0.00 0 0
11/03:40pm 42.1 42.1 38.6 2.8 19 5.4 10.7 30.02 0.00 0 0
11/03:10pm 44.6 44.6 40.8 2.5 17 6.7 12.1 30.01 0.00 0 0
11/02:40pm 45.1 45.1 42.2 3.0 17 5.4 14.8 30.01 0.00 0 0
11/02:10pm 45.1 45.1 45.1 4.2 18 1.3 17.4 30.00 0.00 0 0
11/01:40pm 43.7 43.7 43.7 6.4 21 2.7 12.1 30.01 0.00 0 0
11/01:10pm 45.1 45.1 43.8 5.4 19 3.4 10.7 30.01 0.00 0 0
11/12:40pm 44.2 44.2 40.4 7.8 22 6.7 10.7 30.01 0.00 0 0
11/12:10pm 43.0 43.0 40.7 6.8 22 4.0 21.5 30.03 0.00 0 0
11/11:40am 42.3 42.3 39.9 7.1 23 4.0 14.1 30.03 0.00 0 0
11/11:10am 41.5 41.5 38.5 5.6 22 4.7 9.4 30.04 0.00 0 0
11/10:40am 40.5 40.5 35.8 5.6 23 6.7 16.1 30.05 0.00 0 0
11/10:10am 39.4 39.4 36.0 3.7 22 4.7 9.4 30.06 0.00 0 0
11/09:40am 37.0 37.0 33.2 -1.3 19 4.7 12.1 30.06 0.00 0 0
11/09:10am 35.2 35.2 35.2 -2.8 19 2.0 8.1 30.05 0.00 0 0
11/08:40am 35.2 35.2 32.5 -2.8 19 3.4 7.4 30.07 0.00 0 0
11/08:30am 35.2 35.2 35.2 -2.8 19 2.0 4.0 30.07 0.00 0 0
11/08:09am 35.8 35.8 32.4 -3.7 18 4.0 6.0 30.06 0.00 0 0
11/07:39am 33.4 33.4 33.4 -3.4 20 0.0 0.7 30.06 0.00 0 0
11/07:09am 35.2 35.2 35.2 -3.0 19 2.0 4.0 30.06 0.00 0 0
11/06:39am 36.0 36.0 36.0 -4.7 17 2.0 4.7 30.06 0.00 0 0
11/06:09am 36.9 36.9 33.6 -5.2 16 4.0 6.7 30.05 0.00 0 0
11/05:39am 37.2 37.2 34.8 -4.9 16 3.4 6.0 30.05 0.00 0 0
11/05:09am 37.8 37.8 37.8 0.2 20 2.7 4.7 30.05 0.00 0 0
11/04:39am 36.3 36.3 36.3 -5.7 16 2.7 6.0 30.04 0.00 0 0
11/04:09am 37.4 37.4 37.4 -0.1 20 1.3 2.7 30.06 0.00 0 0
11/03:39am 37.9 37.9 37.9 0.4 20 2.0 4.0 30.06 0.00 0 0
11/03:09am 37.4 37.4 37.4 -0.1 20 2.0 4.0 30.07 0.00 0 0
11/02:39am 37.9 37.9 37.9 0.4 20 2.0 6.7 30.08 0.00 0 0
11/02:09am 37.9 37.9 37.9 0.4 20 2.7 4.0 30.06 0.00 0 0
11/01:39am 38.1 38.1 38.1 0.5 20 2.0 3.4 30.06 0.00 0 0
11/01:09am 37.0 37.0 37.0 -5.1 16 2.7 4.7 30.06 0.00 0 0
11/12:39am 37.2 37.2 37.2 -4.9 16 1.3 2.7 30.06 0.00 0 0
11/12:09am 34.9 34.9 34.9 -5.6 17 2.0 3.4 30.07 0.00 0 0
10/11:39pm 36.5 36.5 36.5 -5.5 16 2.0 5.4 30.08 0.00 0 0
10/11:09pm 37.6 37.6 33.9 0.1 20 4.7 8.7 30.10 0.00 0 0
10/10:10pm 34.9 34.9 34.9 -5.4 17 0.7 4.7 29.73 0.00 0 0
10/09:40pm 36.9 36.9 36.9 -5.1 16 0.7 4.7 29.73 0.00 0 0
10/09:10pm 35.8 35.8 35.8 -6.0 16 0.0 3.4 29.74 0.00 0 0
10/08:40pm 36.0 36.0 36.0 -5.8 16 2.0 2.7 29.74 0.00 0 0
10/08:10pm 37.8 37.8 37.8 0.3 20 2.0 9.4 29.75 0.00 0 0
10/07:40pm 37.4 37.4 37.4 0.0 20 1.3 3.4 29.75 0.00 0 0
10/07:10pm 37.4 37.4 37.4 0.0 20 0.7 2.7 29.75 0.00 0 0
10/06:40pm 36.5 36.5 36.5 -4.1 17 0.0 2.0 29.75 0.00 0 0
10/06:10pm 36.7 36.7 36.7 -5.2 16 0.0 2.0 29.76 0.00 0 0
 
Date/Time
WST
 
Temp
°F
App
Temp
°F
Heat
Index
°F
Wind
Chill
°F
Dew
Point
°F
Rel
Hum
%
 
Dir
 
 
Spd
km/h
Wind
Gust
km/h
 
Spd
kts
 
Gust
kts
Press
MSL
in
Rain
Since 9am
in
 
Solar
W/m2
 
UV
Index
10/05:40pm 38.7 38.7 38.7 1.1 20 0.0 2.7 29.76 0.00 0 0
10/05:10pm 39.2 39.2 39.2 1.5 20 0.0 2.0 29.77 0.00 0 0
10/04:40pm 38.8 38.8 38.8 1.2 20 0.0 2.0 29.76 0.00 0 0
10/04:10pm 41.0 41.0 41.0 0.8 18 0.0 3.4 29.77 0.00 0 0
10/03:40pm 41.7 41.7 39.9 1.4 18 3.4 5.4 29.77 0.00 0 0
10/03:10pm 42.8 42.8 42.8 1.0 17 0.0 0.0 29.76 0.00 0 0
10/02:40pm 43.5 43.5 43.5 1.6 17 1.3 8.1 29.76 0.00 0 0
10/02:10pm 44.6 44.6 44.6 1.2 16 2.0 6.0 29.76 0.00 0 0
10/01:40pm 43.7 43.7 42.2 1.8 17 3.4 6.7 29.76 0.00 0 0
10/01:10pm 45.3 45.3 45.3 1.8 16 2.7 5.4 29.76 0.00 0 0
10/12:40pm 45.0 45.0 45.0 1.5 16 2.0 10.1 29.77 0.00 0 0
10/12:10pm 46.8 46.8 46.8 6.7 19 1.3 7.4 29.77 0.00 0 0
10/11:40am 45.9 45.9 45.9 3.6 17 1.3 7.4 29.78 0.00 0 0
10/11:10am 44.4 44.4 44.4 2.4 17 1.3 3.4 29.80 0.00 0 0
10/10:40am 42.1 42.1 42.1 1.7 18 2.0 4.0 29.81 0.00 0 0
10/10:10am 37.6 37.6 37.6 0.2 20 1.3 3.4 29.82 0.00 0 0
10/09:40am 34.2 34.2 34.2 -6.0 17 2.0 4.7 29.81 0.00 0 0
10/09:10am 32.4 32.4 32.4 -6.3 18 1.3 3.4 29.82 0.00 0 0
10/08:40am 34.9 34.9 34.9 -5.4 17 0.7 2.0 29.82 0.00 0 0
10/08:38am 34.0 34.0 34.0 -6.4 17 1.3 2.0 29.81 0.00 0 0
10/08:08am 28.2 28.2 28.2 -12.3 16 1.3 2.7 29.81 0.00 0 0
10/07:38am 25.0 25.0 25.0 -13.8 17 0.0 0.0 29.80 0.00 0 0
10/07:08am 25.0 25.0 25.0 -13.8 17 0.0 0.0 29.81 0.00 0 0
10/06:38am 24.4 24.4 24.4 -13.1 18 0.0 0.0 29.80 0.00 0 0
10/06:08am 23.0 23.0 23.0 -14.3 18 0.7 2.0 29.80 0.00 0 0
10/05:38am 24.8 24.8 24.8 -13.9 17 0.0 1.3 29.80 0.00 0 0
10/05:08am 22.6 22.6 22.6 -13.5 19 0.7 1.3 29.81 0.00 0 0
10/04:38am 23.7 23.7 23.7 -13.7 18 0.7 2.0 29.80 0.00 0 0
10/04:08am 20.1 20.1 20.1 -14.6 20 2.0 3.4 29.80 0.00 0 0
10/03:38am 19.2 19.2 19.2 -19.7 16 0.7 1.3 29.80 0.00 0 0
10/03:08am 20.8 20.8 20.8 -13.0 21 0.0 0.0 29.80 0.00 0 0
10/02:38am 20.7 20.7 20.7 -14.2 20 1.3 2.0 29.80 0.00 0 0
10/02:08am 21.7 21.7 21.7 -14.3 19 0.0 1.3 29.81 0.00 0 0
10/01:38am 20.7 20.7 20.7 -14.2 20 0.7 2.0 29.81 0.00 0 0
10/01:08am 18.3 18.3 18.3 -20.5 16 0.7 1.3 29.81 0.00 0 0
10/12:38am 20.5 20.5 20.5 -13.3 21 0.0 0.0 29.81 0.00 0 0
10/12:08am 19.2 19.2 19.2 -18.6 17 0.7 1.3 29.82 0.00 0 0
9/11:38pm 19.2 19.2 19.2 -18.6 17 1.3 2.7 29.83 0.00 0 0
9/11:08pm 21.9 21.9 21.9 -13.1 20 0.0 1.3 29.83 0.00 0 0
9/10:38pm 21.9 21.9 21.9 -13.1 20 0.7 1.3 29.84 0.00 0 0
9/09:40pm 21.7 21.7 17.1 -12.1 21 3.4 4.7 30.23 0.00 0 0
9/09:10pm 19.8 19.8 19.8 -11.1 24 2.7 4.7 30.23 0.00 0 0
9/08:40pm 21.4 21.4 21.4 -10.6 23 2.0 4.7 30.23 0.00 0 0
9/08:10pm 21.7 21.7 21.7 -9.4 24 0.0 6.7 30.24 0.00 0 0
9/07:40pm 21.4 21.4 21.4 -9.7 24 0.0 2.0 30.23 0.00 0 0
9/07:10pm 21.6 21.6 21.6 -8.7 25 0.0 0.0 30.24 0.00 0 0
9/06:40pm 21.9 21.9 21.9 -9.3 24 0.0 0.0 30.23 0.00 0 0
9/06:10pm 23.7 23.7 23.7 -9.5 22 0.0 2.0 30.24 0.00 0 0
9/05:40pm 25.3 25.3 25.3 -10.0 20 0.0 0.0 30.23 0.00 0 0
 
Date/Time
MST
 
Temp
°F
App
Temp
°F
Heat
Index
°F
Wind
Chill
°F
Dew
Point
°F
Rel
Hum
%
 
Dir
 
 
Spd
km/h
Wind
Gust
km/h
 
Speed
MPH
 
Gust
MPH
Press
MSL
in
Rain
Since 9am
in
 
Solar
W/m2
 
UV
Index




page updated 12/12/2018 5:40:02 PM
powered by  cumulus v1.9.4 (1099)
cumulus software support forum